createdAt,value
2022-10-12T00:02:19.784Z,6.90
2022-10-12T00:04:46.703Z,7.53
2022-10-12T00:07:13.528Z,6.30
2022-10-12T00:09:40.392Z,7.70
2022-10-12T00:12:07.352Z,6.30
2022-10-12T00:14:37.967Z,6.95
2022-10-12T00:17:04.941Z,7.22
2022-10-12T00:19:31.913Z,10.20
2022-10-12T00:21:58.731Z,11.73
2022-10-12T00:24:25.732Z,5.35
2022-10-12T00:26:52.816Z,6.93
2022-10-12T00:29:20.087Z,8.93
2022-10-12T00:31:46.929Z,9.13
2022-10-12T00:34:13.839Z,6.25
2022-10-12T00:36:40.773Z,6.70
2022-10-12T00:39:09.511Z,6.38
2022-10-12T00:41:42.968Z,5.53
2022-10-12T00:44:40.976Z,4.43
2022-10-12T00:47:24.247Z,7.10
2022-10-12T00:50:15.705Z,7.40
2022-10-12T00:53:14.235Z,4.28
2022-10-12T00:55:49.571Z,5.90
2022-10-12T00:58:16.924Z,6.45
2022-10-12T01:00:44.231Z,6.82
2022-10-12T01:03:15.327Z,6.90
2022-10-12T01:05:42.397Z,6.63
2022-10-12T01:08:09.290Z,3.25
2022-10-12T01:10:36.173Z,5.82
2022-10-12T01:13:03.357Z,7.28
2022-10-12T01:15:36.605Z,7.35
2022-10-12T01:18:07.261Z,11.60
2022-10-12T01:20:49.077Z,5.35
2022-10-12T01:23:18.957Z,5.32
2022-10-12T01:25:48.483Z,4.97
2022-10-12T01:28:25.846Z,5.40
2022-10-12T01:31:01.876Z,4.72
2022-10-12T01:33:40.460Z,8.45
2022-10-12T01:36:19.450Z,4.90
2022-10-12T01:38:55.193Z,6.80
2022-10-12T01:41:36.635Z,4.25
2022-10-12T01:44:03.548Z,9.30
2022-10-12T01:46:30.296Z,4.32
2022-10-12T01:49:01.058Z,6.25
2022-10-12T01:51:40.611Z,7.47
2022-10-12T01:54:12.095Z,5.57
2022-10-12T01:56:41.902Z,4.53
2022-10-12T01:59:25.116Z,7.28
2022-10-12T02:02:10.464Z,4.07
2022-10-12T02:04:45.811Z,3.85
2022-10-12T02:07:22.383Z,7.30
2022-10-12T02:09:53.770Z,8.30
2022-10-12T02:12:23.731Z,5.88
2022-10-12T02:14:54.801Z,3.70
2022-10-12T02:17:23.426Z,7.18
2022-10-12T02:19:58.231Z,7.75
2022-10-12T02:22:34.378Z,4.20
2022-10-12T02:25:04.172Z,5.40
2022-10-12T02:27:35.142Z,6.50
2022-10-12T02:30:02.775Z,6.95
2022-10-12T02:32:54.734Z,5.53
2022-10-12T02:35:38.515Z,5.65
2022-10-12T02:38:14.546Z,7.03
2022-10-12T02:40:50.797Z,7.32
2022-10-12T02:43:49.459Z,10.85
2022-10-12T02:46:17.241Z,6.85
2022-10-12T02:48:45.812Z,5.90
2022-10-12T02:51:12.931Z,4.35
2022-10-12T02:53:40.326Z,4.78
2022-10-12T02:56:12.563Z,4.72
2022-10-12T02:58:41.279Z,6.45
2022-10-12T03:01:08.133Z,12.50
2022-10-12T03:03:35.050Z,6.88
2022-10-12T03:06:02.071Z,6.30
2022-10-12T03:08:28.950Z,3.80
2022-10-12T03:11:00.450Z,5.72
2022-10-12T03:13:27.396Z,6.20
2022-10-12T03:15:54.203Z,5.13
2022-10-12T03:18:21.070Z,7.93
2022-10-12T03:20:48.853Z,5.75
2022-10-12T03:23:15.661Z,4.82
2022-10-12T03:25:42.495Z,4.15
2022-10-12T03:28:09.371Z,6.03
2022-10-12T03:30:36.290Z,8.38
2022-10-12T03:33:03.198Z,6.00
2022-10-12T03:35:30.098Z,4.72
2022-10-12T03:37:56.921Z,5.65
2022-10-12T03:40:23.754Z,8.90
2022-10-12T03:42:50.688Z,3.90
2022-10-12T03:45:17.489Z,5.22
2022-10-12T03:47:44.328Z,6.38
2022-10-12T03:50:11.117Z,5.57
2022-10-12T03:52:37.937Z,4.82
2022-10-12T03:55:05.144Z,6.82
2022-10-12T03:57:32.067Z,5.90
2022-10-12T03:59:58.904Z,5.60
2022-10-12T04:02:25.747Z,6.43
2022-10-12T04:04:52.580Z,5.57
2022-10-12T04:07:19.436Z,3.97
2022-10-12T04:09:46.319Z,4.18
2022-10-12T04:12:13.927Z,8.60
2022-10-12T04:14:40.823Z,5.28
2022-10-12T04:17:07.843Z,5.22
2022-10-12T04:19:34.635Z,3.92
2022-10-12T04:22:01.405Z,8.82
2022-10-12T04:24:28.290Z,6.13
2022-10-12T04:26:55.187Z,4.30
2022-10-12T04:29:22.449Z,8.55
2022-10-12T04:31:49.368Z,5.70
2022-10-12T04:34:16.164Z,6.45
2022-10-12T04:36:43.015Z,5.57
2022-10-12T04:39:09.811Z,3.42
2022-10-12T04:41:37.015Z,4.43
2022-10-12T04:44:03.851Z,8.02
2022-10-12T04:46:30.693Z,7.35
2022-10-12T04:48:58.084Z,5.78
2022-10-12T04:51:25.192Z,5.38
2022-10-12T04:53:52.236Z,4.85
2022-10-12T04:56:19.611Z,6.47
2022-10-12T04:58:46.484Z,5.95
2022-10-12T05:01:13.352Z,4.70
2022-10-12T05:03:42.132Z,4.32
2022-10-12T05:06:09.235Z,3.30
2022-10-12T05:08:36.139Z,5.38
2022-10-12T05:11:03.104Z,5.90
2022-10-12T05:13:30.557Z,4.93
2022-10-12T05:15:57.439Z,7.20
2022-10-12T05:18:24.751Z,6.28
2022-10-12T05:20:56.655Z,7.20
2022-10-12T05:23:24.180Z,5.60
2022-10-12T05:25:51.088Z,4.38
2022-10-12T05:28:18.022Z,10.98
2022-10-12T05:30:44.951Z,6.25
2022-10-12T05:33:11.930Z,6.88
2022-10-12T05:35:40.222Z,6.97
2022-10-12T05:38:08.748Z,8.98
2022-10-12T05:40:35.633Z,6.45
2022-10-12T05:43:02.674Z,7.35
2022-10-12T05:45:29.492Z,9.07
2022-10-12T05:47:56.402Z,7.07
2022-10-12T05:50:23.494Z,9.85
2022-10-12T05:52:50.441Z,13.65
2022-10-12T05:55:17.503Z,11.13
2022-10-12T05:57:48.387Z,11.05
2022-10-12T06:00:18.107Z,11.02
2022-10-12T06:02:44.922Z,10.25
2022-10-12T06:05:11.788Z,7.85
2022-10-12T06:07:38.590Z,12.27
2022-10-12T06:10:06.700Z,8.43
2022-10-12T06:12:33.518Z,8.25
2022-10-12T06:15:00.410Z,9.23
2022-10-12T06:17:27.288Z,11.80
2022-10-12T06:19:54.243Z,9.80
2022-10-12T06:22:21.227Z,7.45
2022-10-12T06:24:48.057Z,12.95
2022-10-12T06:27:14.984Z,10.75
2022-10-12T06:29:41.789Z,10.05
2022-10-12T06:32:08.704Z,8.52
2022-10-12T06:34:35.564Z,7.82
2022-10-12T06:37:02.504Z,11.40
2022-10-12T06:39:29.397Z,8.80
2022-10-12T06:41:56.348Z,8.77
2022-10-12T06:44:24.162Z,11.15
2022-10-12T06:46:51.064Z,6.60
2022-10-12T06:49:18.212Z,9.15
2022-10-12T06:51:45.119Z,8.77
2022-10-12T06:54:12.047Z,13.93
2022-10-12T06:56:39.681Z,10.43
2022-10-12T06:59:06.911Z,9.40
2022-10-12T07:01:36.187Z,9.80
2022-10-12T07:04:03.107Z,9.40
2022-10-12T07:06:30.007Z,12.07
2022-10-12T07:08:56.866Z,11.88
2022-10-12T07:11:23.922Z,9.13
2022-10-12T07:13:51.411Z,8.95
2022-10-12T07:16:18.221Z,11.55
2022-10-12T07:18:44.971Z,10.50
2022-10-12T07:21:11.865Z,14.23
2022-10-12T07:23:42.494Z,9.25
2022-10-12T07:26:12.648Z,13.63
2022-10-12T07:28:39.545Z,8.48
2022-10-12T07:31:08.115Z,12.25
2022-10-12T07:33:36.340Z,9.55
2022-10-12T07:36:13.954Z,11.77
2022-10-12T07:38:44.958Z,17.88
2022-10-12T07:41:12.858Z,14.73
2022-10-12T07:43:40.110Z,11.77
2022-10-12T07:46:07.830Z,9.75
2022-10-12T07:48:35.032Z,11.63
2022-10-12T07:51:07.173Z,8.55
2022-10-12T07:53:35.548Z,10.88
2022-10-12T07:56:05.372Z,10.68
2022-10-12T07:58:33.033Z,13.18
2022-10-12T08:01:07.176Z,11.65
2022-10-12T08:03:34.223Z,7.40
2022-10-12T08:06:08.912Z,14.07
2022-10-12T08:08:35.819Z,7.60
2022-10-12T08:11:03.800Z,7.78
2022-10-12T08:13:31.236Z,13.00
2022-10-12T08:15:58.132Z,9.70
2022-10-12T08:18:25.499Z,10.88
2022-10-12T08:20:52.438Z,11.15
2022-10-12T08:23:19.384Z,10.50
2022-10-12T08:25:57.072Z,14.18
2022-10-12T08:28:25.213Z,9.25
2022-10-12T08:30:52.100Z,11.43
2022-10-12T08:33:19.667Z,12.32
2022-10-12T08:35:47.859Z,13.75
2022-10-12T08:38:16.004Z,12.55
2022-10-12T08:40:52.276Z,13.65
2022-10-12T08:43:37.661Z,10.50
2022-10-12T08:46:05.961Z,14.73
2022-10-12T08:48:54.731Z,13.25
2022-10-12T08:51:26.044Z,11.63
2022-10-12T08:54:12.315Z,14.68
2022-10-12T08:56:41.260Z,11.20
2022-10-12T08:59:17.111Z,10.75
2022-10-12T09:01:57.393Z,9.93
2022-10-12T09:05:05.395Z,10.27
2022-10-12T09:08:06.902Z,8.23
2022-10-12T09:10:47.276Z,9.50
2022-10-12T09:13:25.199Z,12.02
2022-10-12T09:15:58.764Z,9.48
2022-10-12T09:18:41.413Z,10.48
2022-10-12T09:21:16.763Z,7.88
2022-10-12T09:23:44.687Z,11.90
2022-10-12T09:26:18.444Z,10.15
2022-10-12T09:28:56.766Z,6.57
2022-10-12T09:32:00.171Z,12.27
2022-10-12T09:34:27.057Z,8.23
2022-10-12T09:36:55.628Z,9.68
2022-10-12T09:39:45.483Z,11.95
2022-10-12T09:42:13.328Z,9.38
2022-10-12T09:44:47.914Z,10.57
2022-10-12T09:47:32.424Z,10.68
2022-10-12T09:50:02.330Z,11.75
2022-10-12T09:52:37.073Z,10.75
2022-10-12T09:55:19.321Z,12.10
2022-10-12T09:57:54.657Z,10.30
2022-10-12T10:00:27.487Z,21.42
2022-10-12T10:02:55.723Z,16.73
2022-10-12T10:05:38.066Z,7.63
2022-10-12T10:08:22.828Z,12.95
2022-10-12T10:10:52.539Z,10.95
2022-10-12T10:13:21.974Z,12.00
2022-10-12T10:16:03.601Z,14.65
2022-10-12T10:18:37.013Z,14.30
2022-10-12T10:21:07.788Z,9.27
2022-10-12T10:23:53.356Z,9.25
2022-10-12T10:26:22.320Z,13.23
2022-10-12T10:28:53.601Z,7.60
2022-10-12T10:31:25.329Z,6.47
2022-10-12T10:34:12.412Z,9.57
2022-10-12T10:36:46.760Z,13.73
2022-10-12T10:39:24.628Z,8.88
2022-10-12T10:41:53.317Z,11.82
2022-10-12T10:44:32.140Z,7.60
2022-10-12T10:47:09.326Z,11.88
2022-10-12T10:49:42.317Z,10.02
2022-10-12T10:52:26.750Z,8.55
2022-10-12T10:55:19.658Z,9.02
2022-10-12T10:58:03.156Z,7.38
2022-10-12T11:00:39.028Z,6.30
2022-10-12T11:06:24.101Z,6.72
2022-10-12T11:08:59.680Z,10.02
2022-10-12T11:11:29.018Z,6.90
2022-10-12T11:14:04.145Z,9.77
2022-10-12T11:16:41.608Z,7.45
2022-10-12T11:19:44.770Z,5.85
2022-10-12T11:22:26.116Z,6.70
2022-10-12T11:25:07.935Z,8.25
2022-10-12T11:27:38.326Z,9.98
2022-10-12T11:30:30.871Z,7.32
2022-10-12T11:33:00.784Z,10.40
2022-10-12T11:35:35.862Z,6.75
2022-10-12T11:38:29.978Z,9.13
2022-10-12T11:41:19.149Z,7.95
2022-10-12T11:43:56.300Z,8.68
2022-10-12T11:46:34.768Z,9.52
2022-10-12T11:49:33.623Z,7.80
2022-10-12T11:52:08.467Z,6.38
2022-10-12T11:54:48.587Z,8.10
2022-10-12T11:57:26.306Z,7.15
2022-10-12T12:00:04.872Z,4.63
2022-10-12T12:02:44.143Z,6.68
2022-10-12T12:05:16.781Z,8.43
2022-10-12T12:07:55.233Z,5.15
2022-10-12T12:10:28.204Z,8.85
2022-10-12T12:13:15.140Z,6.75
2022-10-12T12:15:48.187Z,4.40
2022-10-12T12:18:18.619Z,6.05
2022-10-12T12:20:46.792Z,4.43
2022-10-12T12:23:35.263Z,6.00
2022-10-12T12:26:16.284Z,6.22
2022-10-12T12:28:47.870Z,4.82
2022-10-12T12:31:26.423Z,6.25
2022-10-12T12:34:16.267Z,4.32
2022-10-12T12:36:46.022Z,4.68
2022-10-12T12:39:30.965Z,7.90
2022-10-12T12:42:05.300Z,3.28
2022-10-12T12:44:38.179Z,4.43
2022-10-12T12:47:20.588Z,4.80
2022-10-12T12:50:16.292Z,4.40
2022-10-12T12:52:43.459Z,5.90
2022-10-12T12:55:37.475Z,4.20
2022-10-12T12:58:23.307Z,4.00
2022-10-12T13:00:55.688Z,4.30
2022-10-12T13:03:50.613Z,6.35
2022-10-12T13:06:20.475Z,5.47
2022-10-12T13:08:56.435Z,6.57
2022-10-12T13:12:03.148Z,10.80
2022-10-12T13:14:50.697Z,2.65
2022-10-12T13:17:48.284Z,4.75
2022-10-12T13:20:25.716Z,7.15
2022-10-12T13:22:57.748Z,3.15
2022-10-12T13:25:42.056Z,5.72
2022-10-12T13:28:15.005Z,5.03
2022-10-12T13:31:07.705Z,3.22
2022-10-12T13:33:40.687Z,3.65
2022-10-12T13:36:17.479Z,3.33
2022-10-12T13:38:44.313Z,6.18
2022-10-12T13:41:11.152Z,2.95
2022-10-12T13:43:54.324Z,6.45
2022-10-12T13:46:46.619Z,4.75
2022-10-12T13:49:22.902Z,6.45
2022-10-12T13:51:55.901Z,6.55
2022-10-12T13:54:42.126Z,7.55
2022-10-12T13:57:40.752Z,5.45
2022-10-12T14:00:16.440Z,4.35
2022-10-12T14:02:54.308Z,6.15
2022-10-12T14:05:24.214Z,6.88
2022-10-12T14:07:53.769Z,4.70
2022-10-12T14:10:29.682Z,7.55
2022-10-12T14:12:57.875Z,6.95
2022-10-12T14:15:27.989Z,4.07
2022-10-12T14:17:54.986Z,5.63
2022-10-12T14:20:32.343Z,5.20
2022-10-12T14:23:01.554Z,5.88
2022-10-12T14:25:31.261Z,5.18
2022-10-12T14:28:04.314Z,5.85
2022-10-12T14:30:38.970Z,4.13
2022-10-12T14:33:14.867Z,3.65
2022-10-12T14:35:46.848Z,5.93
2022-10-12T14:38:36.163Z,6.82
2022-10-12T14:41:44.633Z,4.28
2022-10-12T14:44:16.054Z,2.85
2022-10-12T14:46:52.769Z,4.15
2022-10-12T14:49:32.442Z,6.38
2022-10-12T14:52:00.399Z,3.70
2022-10-12T14:54:27.529Z,3.97
2022-10-12T14:56:54.497Z,5.22
2022-10-12T14:59:21.408Z,6.93
2022-10-12T15:01:51.422Z,8.93
2022-10-12T15:04:18.596Z,3.47
2022-10-12T15:06:50.529Z,4.35
2022-10-12T15:09:17.980Z,2.95
2022-10-12T15:11:44.863Z,2.83
2022-10-12T15:14:11.813Z,7.65
2022-10-12T15:16:39.060Z,2.63
2022-10-12T15:19:06.009Z,4.03
2022-10-12T15:21:32.865Z,2.95
2022-10-12T15:23:59.702Z,5.75
2022-10-12T15:26:27.018Z,6.28
2022-10-12T15:28:54.229Z,4.57
2022-10-12T15:31:21.110Z,2.72
2022-10-12T15:33:48.077Z,3.75
2022-10-12T15:36:14.915Z,3.75
2022-10-12T15:38:41.772Z,5.03
2022-10-12T15:41:20.717Z,6.93
2022-10-12T15:43:47.984Z,7.75
2022-10-12T15:46:14.889Z,8.52
2022-10-12T15:48:42.121Z,4.05
2022-10-12T15:51:17.383Z,5.70
2022-10-12T15:53:45.086Z,7.18
2022-10-12T15:56:14.474Z,4.47
2022-10-12T15:58:41.948Z,10.65
2022-10-12T16:01:17.941Z,5.65
2022-10-12T16:03:45.185Z,11.85
2022-10-12T16:06:12.615Z,5.18
2022-10-12T16:08:39.677Z,6.20
2022-10-12T16:11:08.589Z,5.18
2022-10-12T16:13:39.662Z,4.30
2022-10-12T16:16:11.542Z,7.82
2022-10-12T16:18:38.911Z,8.00
2022-10-12T16:21:06.109Z,7.03
2022-10-12T16:23:35.763Z,7.75
2022-10-12T16:26:06.367Z,6.70
2022-10-12T16:28:34.000Z,7.00
2022-10-12T16:31:01.081Z,10.02
2022-10-12T16:33:28.003Z,9.98
2022-10-12T16:35:54.911Z,6.70
2022-10-12T16:38:22.054Z,7.90
2022-10-12T16:40:49.351Z,9.63
2022-10-12T16:43:17.993Z,13.18
2022-10-12T16:45:44.948Z,13.05
2022-10-12T16:48:11.789Z,11.40
2022-10-12T16:50:40.759Z,8.80
2022-10-12T16:53:08.106Z,6.43
2022-10-12T16:55:37.835Z,8.15
2022-10-12T16:58:04.960Z,4.93
2022-10-12T17:00:31.869Z,5.68
2022-10-12T17:02:58.799Z,7.25
2022-10-12T17:05:25.680Z,8.48
2022-10-12T17:07:52.598Z,9.25
2022-10-12T17:10:19.629Z,7.90
2022-10-12T17:12:46.571Z,9.20
2022-10-12T17:15:13.441Z,5.88
2022-10-12T17:17:40.304Z,8.60
2022-10-12T17:20:07.548Z,7.07
2022-10-12T17:22:34.910Z,6.53
2022-10-12T17:25:01.820Z,6.95
2022-10-12T17:27:31.376Z,7.72
2022-10-12T17:29:59.608Z,8.55
2022-10-12T17:32:26.798Z,10.73
2022-10-12T17:34:53.651Z,7.75
2022-10-12T17:37:21.936Z,8.95
2022-10-12T17:39:50.521Z,9.40
2022-10-12T17:42:17.931Z,9.38
2022-10-12T17:44:45.104Z,6.63
2022-10-12T17:47:12.009Z,6.03
2022-10-12T17:49:39.126Z,8.23
2022-10-12T17:52:06.461Z,7.40
2022-10-12T17:54:35.978Z,7.32
2022-10-12T17:57:03.053Z,11.80
2022-10-12T17:59:30.038Z,10.07
2022-10-12T18:01:56.908Z,8.48
2022-10-12T18:04:23.980Z,8.38
2022-10-12T18:06:51.066Z,10.05
2022-10-12T18:09:17.910Z,15.55
2022-10-12T18:11:44.960Z,10.27
2022-10-12T18:14:13.218Z,10.95
2022-10-12T18:16:40.957Z,9.77
2022-10-12T18:19:10.349Z,8.85
2022-10-12T18:21:38.686Z,10.10
2022-10-12T18:24:12.290Z,11.68
2022-10-12T18:26:46.335Z,13.73
2022-10-12T18:29:15.496Z,7.82
2022-10-12T18:31:42.449Z,12.25
2022-10-12T18:34:09.425Z,11.15
2022-10-12T18:36:36.641Z,10.27
2022-10-12T18:39:04.514Z,10.85
2022-10-12T18:41:31.911Z,10.98
2022-10-12T18:44:00.588Z,9.25
2022-10-12T18:46:29.494Z,11.55
2022-10-12T18:48:56.988Z,8.23
2022-10-12T18:51:30.115Z,10.45
2022-10-12T18:53:58.373Z,10.27
2022-10-12T18:56:25.877Z,10.40
2022-10-12T18:58:52.824Z,10.05
2022-10-12T19:01:25.191Z,12.23
2022-10-12T19:03:53.829Z,15.35
2022-10-12T19:06:24.038Z,11.15
2022-10-12T19:08:51.971Z,13.57
2022-10-12T19:11:21.338Z,13.85
2022-10-12T19:13:59.503Z,12.02
2022-10-12T19:16:27.391Z,12.35
2022-10-12T19:18:59.717Z,14.10
2022-10-12T19:21:27.326Z,13.65
2022-10-12T19:23:54.338Z,13.93
2022-10-12T19:26:24.778Z,13.38
2022-10-12T19:28:54.031Z,11.75
2022-10-12T19:31:26.834Z,10.90
2022-10-12T19:34:01.631Z,19.23
2022-10-12T19:36:29.399Z,12.15
2022-10-12T19:38:57.810Z,13.10
2022-10-12T19:41:26.497Z,13.60
2022-10-12T19:43:53.408Z,24.42
2022-10-12T19:46:20.669Z,13.80
2022-10-12T19:48:50.122Z,14.27
2022-10-12T19:51:18.521Z,15.43
2022-10-12T19:53:45.464Z,14.98
2022-10-12T19:56:15.379Z,17.05
2022-10-12T19:58:44.555Z,13.40
2022-10-12T20:01:16.847Z,14.65
2022-10-12T20:03:47.790Z,13.77
2022-10-12T20:06:15.744Z,11.30
2022-10-12T20:08:44.537Z,18.42
2022-10-12T20:11:18.276Z,11.30
2022-10-12T20:13:47.995Z,14.32
2022-10-12T20:16:16.057Z,12.98
2022-10-12T20:18:43.225Z,14.63
2022-10-12T20:21:12.334Z,13.00
2022-10-12T20:23:41.461Z,12.63
2022-10-12T20:26:12.826Z,14.63
2022-10-12T20:28:39.743Z,17.27
2022-10-12T20:31:07.490Z,12.85
2022-10-12T20:33:35.976Z,14.63
2022-10-12T20:36:04.310Z,13.90
2022-10-12T20:38:31.093Z,11.52
2022-10-12T20:41:09.409Z,13.10
2022-10-12T20:43:40.372Z,11.70
2022-10-12T20:46:18.540Z,13.23
2022-10-12T20:48:46.247Z,14.70
2022-10-12T20:51:28.814Z,14.35
2022-10-12T20:53:59.211Z,11.95
2022-10-12T20:56:27.639Z,11.60
2022-10-12T20:58:57.644Z,13.65
2022-10-12T21:01:26.147Z,13.85
2022-10-12T21:03:54.421Z,14.52
2022-10-12T21:06:23.402Z,9.02
2022-10-12T21:08:52.727Z,12.57
2022-10-12T21:11:20.163Z,14.30
2022-10-12T21:13:47.105Z,15.85
2022-10-12T21:16:14.696Z,10.45
2022-10-12T21:18:42.537Z,9.98
2022-10-12T21:21:17.791Z,12.52
2022-10-12T21:23:51.575Z,11.60
2022-10-12T21:26:20.429Z,13.90
2022-10-12T21:28:47.722Z,14.88
2022-10-12T21:31:15.595Z,11.35
2022-10-12T21:33:42.755Z,10.20
2022-10-12T21:36:18.287Z,11.77
2022-10-12T21:38:45.222Z,10.25
2022-10-12T21:41:13.445Z,11.10
2022-10-12T21:43:41.983Z,12.68
2022-10-12T21:46:11.383Z,10.65
2022-10-12T21:48:38.619Z,9.93
2022-10-12T21:51:07.123Z,10.98
2022-10-12T21:53:35.077Z,9.77
2022-10-12T21:56:09.835Z,11.05
2022-10-12T21:58:36.755Z,11.27
2022-10-12T22:01:09.237Z,10.45
2022-10-12T22:03:36.305Z,10.65
2022-10-12T22:06:03.721Z,9.57
2022-10-12T22:08:30.667Z,12.32
2022-10-12T22:10:57.637Z,10.70
2022-10-12T22:13:24.498Z,11.13
2022-10-12T22:16:05.833Z,10.55
2022-10-12T22:18:33.003Z,7.53
2022-10-12T22:21:09.075Z,9.85
2022-10-12T22:23:36.198Z,12.40
2022-10-12T22:26:07.082Z,12.77
2022-10-12T22:28:35.216Z,10.23
2022-10-12T22:31:06.550Z,10.50
2022-10-12T22:33:33.462Z,9.55
2022-10-12T22:36:01.931Z,7.72
2022-10-12T22:38:29.840Z,8.23
2022-10-12T22:41:02.246Z,9.65
2022-10-12T22:43:30.620Z,8.30
2022-10-12T22:45:58.006Z,9.02
2022-10-12T22:48:26.373Z,10.30
2022-10-12T22:50:53.835Z,6.25
2022-10-12T22:53:25.354Z,8.45
2022-10-12T22:56:04.310Z,8.90
2022-10-12T22:58:31.465Z,12.02
2022-10-12T23:01:12.681Z,9.13
2022-10-12T23:03:40.405Z,8.25
2022-10-12T23:06:11.622Z,6.82
2022-10-12T23:08:38.797Z,8.27
2022-10-12T23:11:12.616Z,6.85
2022-10-12T23:13:40.440Z,8.07
2022-10-12T23:16:10.715Z,7.85
2022-10-12T23:18:37.719Z,6.53
2022-10-12T23:21:07.150Z,7.35
2022-10-12T23:23:35.732Z,7.70
2022-10-12T23:26:07.690Z,6.20
2022-10-12T23:28:35.315Z,9.80
2022-10-12T23:31:06.953Z,6.88
2022-10-12T23:33:34.482Z,7.90
2022-10-12T23:36:04.608Z,6.30
2022-10-12T23:38:33.012Z,7.60
2022-10-12T23:40:59.977Z,8.05
2022-10-12T23:43:27.131Z,7.22
2022-10-12T23:45:55.680Z,8.60
2022-10-12T23:48:23.849Z,8.75
2022-10-12T23:50:51.984Z,8.38
2022-10-12T23:53:20.573Z,8.93
2022-10-12T23:55:48.274Z,9.07
2022-10-12T23:58:15.345Z,7.30
